Time;durP1;ratioP1;P1;durP2;ratioP2;P2;SDS_P1;SDS_P2;PMS_P1;PMS_P2;Temp;Humidity;BMP_temperature;BMP_pressure;BME280_temperature;BME280_humidity;BME280_pressure;Samples;Min_cycle;Max_cycle;Signal;HPM_P1;HPM_P2
2024/01/29 00:01:27;;;;;;;4.10;2.60;;;0.10;99.90;;;;;;5047892;28;20232;-76
2024/01/29 00:03:55;;;;;;;2.58;2.38;;;0.20;99.90;;;;;;5043579;28;20228;-76
2024/01/29 00:06:22;;;;;;;5.57;2.97;;;0.20;99.90;;;;;;5048683;28;20205;-76
2024/01/29 00:08:50;;;;;;;4.40;3.35;;;0.20;99.90;;;;;;5049522;28;20215;-76
2024/01/29 00:11:17;;;;;;;4.32;3.65;;;0.10;99.90;;;;;;5049797;28;20252;-76
2024/01/29 00:13:45;;;;;;;5.63;3.22;;;0.10;99.90;;;;;;5048468;28;20594;-76
2024/01/29 00:16:12;;;;;;;4.00;3.63;;;0.10;99.90;;;;;;5049075;28;20255;-76
2024/01/29 00:18:39;;;;;;;4.13;2.38;;;0.00;99.90;;;;;;5046962;28;20203;-76
2024/01/29 00:21:07;;;;;;;3.95;2.53;;;0.00;99.90;;;;;;5049500;28;20211;-76
2024/01/29 00:23:34;;;;;;;5.32;4.13;;;0.00;99.90;;;;;;5047355;28;20227;-76
2024/01/29 00:26:01;;;;;;;2.95;2.75;;;0.00;99.90;;;;;;5049329;28;20304;-76
2024/01/29 00:28:27;;;;;;;3.80;2.42;;;0.10;99.90;;;;;;5047894;28;20210;-76
2024/01/29 00:30:55;;;;;;;4.25;2.75;;;0.10;99.90;;;;;;5049462;28;20212;-76
2024/01/29 00:33:21;;;;;;;2.40;2.20;;;0.20;99.90;;;;;;5048700;28;20282;-76
2024/01/29 00:35:48;;;;;;;3.97;3.15;;;0.20;99.90;;;;;;5048733;28;20220;-76
2024/01/29 00:38:16;;;;;;;6.18;2.95;;;0.20;99.90;;;;;;5049566;28;20209;-76
2024/01/29 00:40:43;;;;;;;6.40;3.17;;;0.20;99.90;;;;;;5048020;28;20217;-76
2024/01/29 00:43:09;;;;;;;2.92;2.67;;;0.20;99.90;;;;;;5049552;28;20228;-76
2024/01/29 00:45:36;;;;;;;3.47;2.95;;;0.10;99.90;;;;;;5057507;28;20226;-76
2024/01/29 00:48:03;;;;;;;5.03;3.20;;;0.10;99.90;;;;;;5063637;28;20567;-76
2024/01/29 00:50:30;;;;;;;4.40;3.00;;;0.10;99.90;;;;;;5049505;28;20212;-76
2024/01/29 00:52:57;;;;;;;5.22;3.22;;;0.10;99.90;;;;;;5050927;28;20230;-75
2024/01/29 00:55:25;;;;;;;2.83;2.63;;;0.20;99.90;;;;;;5050095;28;20197;-76
2024/01/29 00:57:52;;;;;;;5.18;3.13;;;0.10;99.90;;;;;;5049669;28;20197;-76
2024/01/29 01:00:19;;;;;;;8.52;3.05;;;0.10;99.90;;;;;;5049718;28;20213;-76
2024/01/29 01:02:45;;;;;;;4.32;2.50;;;0.00;99.90;;;;;;5048394;28;20227;-76
2024/01/29 01:05:12;;;;;;;4.80;3.50;;;0.00;99.90;;;;;;5049615;28;20216;-76
2024/01/29 01:07:39;;;;;;;3.45;3.15;;;-0.10;99.90;;;;;;5048781;28;20208;-76
2024/01/29 01:10:07;;;;;;;4.68;3.30;;;-0.10;99.90;;;;;;5049873;28;20206;-76
2024/01/29 01:12:35;;;;;;;3.15;2.65;;;-0.10;99.90;;;;;;5048803;28;20241;-76
2024/01/29 01:15:01;;;;;;;3.63;3.17;;;-0.20;99.90;;;;;;5049688;28;20216;-76
2024/01/29 01:17:28;;;;;;;5.20;3.40;;;-0.20;99.90;;;;;;5049048;28;20201;-76
2024/01/29 01:19:55;;;;;;;3.63;2.55;;;-0.20;99.90;;;;;;5049838;28;20209;-76
2024/01/29 01:22:21;;;;;;;5.15;2.80;;;-0.20;99.90;;;;;;5049868;28;20625;-76
2024/01/29 01:24:48;;;;;;;3.67;3.35;;;-0.30;99.90;;;;;;5068239;28;20209;-76
2024/01/29 01:27:16;;;;;;;4.28;3.88;;;-0.20;99.90;;;;;;5069211;28;20204;-76
2024/01/29 01:29:44;;;;;;;2.30;2.10;;;-0.20;99.90;;;;;;5049701;28;20292;-76
2024/01/29 01:32:11;;;;;;;3.75;3.05;;;-0.20;99.90;;;;;;5049969;28;20213;-76
2024/01/29 01:34:38;;;;;;;2.90;2.55;;;-0.20;99.90;;;;;;5049066;28;20211;-76
2024/01/29 01:37:05;;;;;;;2.38;2.17;;;-0.20;99.90;;;;;;5050367;28;20201;-76
2024/01/29 01:39:32;;;;;;;4.38;2.67;;;-0.20;99.90;;;;;;5049321;28;20215;-76
2024/01/29 01:41:58;;;;;;;6.05;3.25;;;-0.20;99.90;;;;;;5050123;28;20662;-76
2024/01/29 01:44:25;;;;;;;4.63;2.80;;;-0.20;99.90;;;;;;5050462;28;20201;-76
2024/01/29 01:46:53;;;;;;;3.47;2.85;;;-0.20;99.90;;;;;;5058259;28;20201;-76
2024/01/29 01:49:21;;;;;;;3.33;3.03;;;-0.20;99.90;;;;;;5050541;28;20201;-76
2024/01/29 01:51:49;;;;;;;3.35;3.05;;;-0.10;99.90;;;;;;5049708;28;20209;-76
2024/01/29 01:54:17;;;;;;;3.55;2.70;;;-0.10;99.90;;;;;;5050722;28;20204;-76
2024/01/29 01:56:44;;;;;;;4.93;2.63;;;-0.20;99.90;;;;;;5050223;28;20209;-76
2024/01/29 01:59:12;;;;;;;4.00;2.30;;;-0.20;99.90;;;;;;5051584;28;20211;-76
2024/01/29 02:01:39;;;;;;;2.22;2.00;;;-0.20;99.90;;;;;;5050939;28;20228;-76
2024/01/29 02:04:07;;;;;;;2.50;2.10;;;-0.20;99.90;;;;;;5046443;28;20230;-76
2024/01/29 02:06:34;;;;;;;2.85;2.40;;;-0.20;99.90;;;;;;5031428;28;20197;-76
2024/01/29 02:09:02;;;;;;;2.78;2.58;;;-0.10;99.90;;;;;;5031685;28;20210;-76
2024/01/29 02:11:28;;;;;;;2.47;2.28;;;-0.10;99.90;;;;;;5031271;28;20706;-76
2024/01/29 02:13:55;;;;;;;3.72;2.15;;;-0.10;99.90;;;;;;5031280;28;20597;-76
2024/01/29 02:16:22;;;;;;;3.10;2.80;;;-0.10;99.90;;;;;;5038287;28;20205;-76
2024/01/29 02:18:49;;;;;;;2.33;2.15;;;-0.10;99.90;;;;;;5042663;28;22605;-76
2024/01/29 02:21:17;;;;;;;2.35;2.10;;;-0.10;99.90;;;;;;5036060;28;20215;-76
2024/01/29 02:23:46;;;;;;;3.17;2.20;;;-0.20;99.90;;;;;;5033020;28;20234;-75
2024/01/29 02:26:12;;;;;;;3.83;2.58;;;-0.20;99.90;;;;;;5044692;28;20213;-76
2024/01/29 02:28:39;;;;;;;4.32;2.67;;;-0.20;99.90;;;;;;5032588;28;20584;-76
2024/01/29 02:31:06;;;;;;;2.65;2.00;;;-0.20;99.90;;;;;;5037584;28;20558;-76
2024/01/29 02:33:33;;;;;;;2.40;2.20;;;-0.30;99.90;;;;;;5031259;28;20218;-76
2024/01/29 02:36:00;;;;;;;2.13;1.73;;;-0.30;99.90;;;;;;5031023;28;20198;-76
2024/01/29 02:38:26;;;;;;;3.38;2.30;;;-0.30;99.90;;;;;;5039160;28;20616;-76
2024/01/29 02:40:54;;;;;;;3.55;2.50;;;-0.30;99.90;;;;;;5031815;28;20205;-76
2024/01/29 02:43:21;;;;;;;3.00;2.20;;;-0.30;99.90;;;;;;5034959;28;20733;-76
2024/01/29 02:45:49;;;;;;;4.93;2.60;;;-0.30;99.90;;;;;;5037436;28;20716;-76
2024/01/29 02:48:15;;;;;;;3.78;2.58;;;-0.30;99.90;;;;;;5040147;28;20202;-76
2024/01/29 02:50:42;;;;;;;2.55;2.35;;;-0.30;99.90;;;;;;5035113;28;20609;-76
2024/01/29 02:53:10;;;;;;;2.30;2.10;;;-0.30;99.90;;;;;;5035104;28;20219;-77
2024/01/29 02:55:36;;;;;;;5.72;2.60;;;-0.40;99.90;;;;;;5035039;28;20679;-76
2024/01/29 02:58:04;;;;;;;2.20;2.00;;;-0.40;99.90;;;;;;5035369;28;20219;-75
2024/01/29 03:00:31;;;;;;;5.95;2.72;;;-0.40;99.90;;;;;;5035800;28;20698;-76
2024/01/29 03:02:58;;;;;;;4.45;2.65;;;-0.40;99.90;;;;;;5042165;28;20225;-76
2024/01/29 03:05:25;;;;;;;3.10;2.38;;;-0.40;99.90;;;;;;5034882;28;20229;-76
2024/01/29 03:07:52;;;;;;;2.65;1.85;;;-0.40;99.90;;;;;;5035612;28;20230;-75
2024/01/29 03:10:19;;;;;;;4.47;2.50;;;-0.40;99.90;;;;;;5035205;28;20293;-76
2024/01/29 03:12:46;;;;;;;3.03;2.67;;;-0.40;99.90;;;;;;5035617;28;20230;-76
2024/01/29 03:15:14;;;;;;;5.05;2.58;;;-0.50;99.90;;;;;;5035069;28;20561;-76
2024/01/29 03:17:40;;;;;;;3.55;2.28;;;-0.50;99.90;;;;;;5035719;28;20214;-76
2024/01/29 03:20:08;;;;;;;2.70;1.85;;;-0.50;99.90;;;;;;5035371;28;20197;-76
2024/01/29 03:22:35;;;;;;;3.30;2.33;;;-0.50;99.90;;;;;;5035860;28;20249;-76
2024/01/29 03:25:02;;;;;;;2.53;2.25;;;-0.50;99.90;;;;;;5034837;28;20205;-76
2024/01/29 03:27:28;;;;;;;3.60;2.20;;;-0.50;99.90;;;;;;5035438;28;20197;-76
2024/01/29 03:29:55;;;;;;;2.85;2.47;;;-0.50;99.90;;;;;;5035546;28;20229;-76
2024/01/29 03:32:23;;;;;;;2.13;1.80;;;-0.50;99.90;;;;;;5035476;28;20233;-76
2024/01/29 03:34:50;;;;;;;5.20;2.67;;;-0.50;99.90;;;;;;5035837;28;20205;-76
2024/01/29 03:37:17;;;;;;;2.15;1.95;;;-0.50;99.90;;;;;;5035475;28;20680;-76
2024/01/29 03:39:44;;;;;;;1.75;1.63;;;-0.50;99.90;;;;;;5036232;28;20210;-76
2024/01/29 03:42:11;;;;;;;3.58;2.30;;;-0.60;99.90;;;;;;5035422;28;20738;-76
2024/01/29 03:44:37;;;;;;;2.15;1.95;;;-0.60;99.90;;;;;;5036162;28;20214;-76
2024/01/29 03:47:04;;;;;;;2.08;1.95;;;-0.70;99.90;;;;;;5035426;28;20202;-76
2024/01/29 03:49:32;;;;;;;3.05;2.55;;;-0.60;99.90;;;;;;5035788;28;20773;-76
2024/01/29 03:51:59;;;;;;;1.90;1.67;;;-0.60;99.90;;;;;;5035244;28;20216;-76
2024/01/29 03:54:26;;;;;;;3.22;1.67;;;-0.60;99.90;;;;;;5035349;28;20205;-76
2024/01/29 03:56:53;;;;;;;2.88;1.85;;;-0.60;99.90;;;;;;5035107;28;20209;-76
2024/01/29 03:59:19;;;;;;;2.65;1.92;;;-0.60;99.90;;;;;;5035564;28;20689;-76
2024/01/29 04:01:46;;;;;;;3.47;2.13;;;-0.50;99.90;;;;;;5036743;28;20213;-76
2024/01/29 04:04:13;;;;;;;2.00;1.90;;;-0.50;99.90;;;;;;5035567;28;20222;-76
2024/01/29 04:06:43;;;;;;;3.60;2.55;;;-0.50;99.90;;;;;;5036685;28;20212;-76
2024/01/29 04:09:12;;;;;;;1.88;1.65;;;-0.50;99.90;;;;;;5036534;28;20217;-76
2024/01/29 04:11:39;;;;;;;2.28;2.10;;;-0.50;99.90;;;;;;5040819;28;20292;-77
2024/01/29 04:14:06;;;;;;;3.72;2.78;;;-0.50;99.90;;;;;;5046345;28;20217;-76
2024/01/29 04:16:32;;;;;;;3.72;2.80;;;-0.50;99.90;;;;;;5046698;28;20483;-76
2024/01/29 04:18:59;;;;;;;2.30;2.10;;;-0.50;99.90;;;;;;5047768;28;20207;-77
2024/01/29 04:21:26;;;;;;;1.95;1.80;;;-0.50;99.90;;;;;;5046514;28;20213;-76
2024/01/29 04:23:54;;;;;;;2.00;1.80;;;-0.50;99.90;;;;;;5046283;28;20260;-76
2024/01/29 04:26:21;;;;;;;2.72;2.38;;;-0.50;99.90;;;;;;5042887;28;20293;-77
2024/01/29 04:28:48;;;;;;;2.28;2.08;;;-0.50;99.90;;;;;;5046783;28;20216;-76
2024/01/29 04:31:15;;;;;;;3.42;2.40;;;-0.50;99.90;;;;;;5042640;28;20224;-76
2024/01/29 04:33:43;;;;;;;2.72;2.28;;;-0.50;99.90;;;;;;5045711;28;20272;-76
2024/01/29 04:36:14;;;;;;;3.05;2.40;;;-0.50;99.90;;;;;;5044956;28;20686;-76
2024/01/29 04:38:42;;;;;;;3.33;1.95;;;-0.50;99.90;;;;;;5048619;28;20634;-76
2024/01/29 04:41:17;;;;;;;2.67;2.47;;;-0.50;99.90;;;;;;5043773;28;20653;-76
2024/01/29 04:43:44;;;;;;;2.90;2.22;;;-0.50;99.90;;;;;;5043122;28;20225;-76
2024/01/29 04:46:11;;;;;;;4.18;2.35;;;-0.50;99.90;;;;;;5046853;28;20201;-76
2024/01/29 04:48:38;;;;;;;5.38;2.20;;;-0.50;99.90;;;;;;5047887;28;20205;-76
2024/01/29 04:51:05;;;;;;;3.22;2.28;;;-0.50;99.90;;;;;;5045256;28;20212;-77
2024/01/29 04:53:32;;;;;;;6.32;3.72;;;-0.50;99.90;;;;;;5047769;28;20229;-74
2024/01/29 04:55:59;;;;;;;2.50;2.30;;;-0.50;99.90;;;;;;5044416;28;20197;-77
2024/01/29 04:58:27;;;;;;;3.08;2.60;;;-0.50;99.90;;;;;;5045062;28;20201;-77
2024/01/29 05:00:53;;;;;;;5.78;2.88;;;-0.50;99.90;;;;;;5042685;28;20583;-77
2024/01/29 05:03:20;;;;;;;2.53;1.70;;;-0.50;99.90;;;;;;5041561;28;20226;-75
2024/01/29 05:05:47;;;;;;;2.88;2.30;;;-0.40;99.90;;;;;;5044822;28;20206;-75
2024/01/29 05:08:14;;;;;;;4.15;2.70;;;-0.40;99.90;;;;;;5045103;28;20209;-75
2024/01/29 05:10:41;;;;;;;2.28;2.08;;;-0.40;99.90;;;;;;5050946;28;20213;-72
2024/01/29 05:13:08;;;;;;;3.67;2.42;;;-0.40;99.90;;;;;;5044688;28;20221;-73
2024/01/29 05:15:36;;;;;;;2.55;2.35;;;-0.40;99.90;;;;;;5036628;28;20206;-73
2024/01/29 05:18:03;;;;;;;3.85;2.40;;;-0.40;99.90;;;;;;5037023;28;20225;-73
2024/01/29 05:20:29;;;;;;;4.28;2.60;;;-0.40;99.90;;;;;;5036807;28;20582;-72
2024/01/29 05:22:56;;;;;;;3.20;2.88;;;-0.40;99.90;;;;;;5038634;28;20233;-72
2024/01/29 05:25:23;;;;;;;2.90;2.50;;;-0.40;99.90;;;;;;5036004;28;20221;-72
2024/01/29 05:27:50;;;;;;;4.03;3.72;;;-0.30;99.90;;;;;;5038512;28;20739;-75
2024/01/29 05:30:17;;;;;;;3.67;2.83;;;-0.30;99.90;;;;;;5036172;28;20205;-75
2024/01/29 05:32:45;;;;;;;4.55;3.22;;;-0.30;99.90;;;;;;5038572;28;20594;-72
2024/01/29 05:35:12;;;;;;;3.30;3.08;;;-0.30;99.90;;;;;;5050231;28;20197;-75
2024/01/29 05:37:39;;;;;;;3.10;2.80;;;-0.30;99.90;;;;;;5039746;28;20205;-75
2024/01/29 05:40:07;;;;;;;3.25;2.95;;;-0.30;99.90;;;;;;5037134;28;20205;-73
2024/01/29 05:42:34;;;;;;;6.20;4.38;;;-0.30;99.90;;;;;;5037351;28;20283;-75
2024/01/29 05:45:01;;;;;;;4.13;3.53;;;-0.40;99.90;;;;;;5037625;28;20227;-75
2024/01/29 05:47:27;;;;;;;3.90;3.30;;;-0.40;99.90;;;;;;5036756;28;20213;-75
2024/01/29 05:49:55;;;;;;;4.90;3.17;;;-0.30;99.90;;;;;;5036317;28;20561;-74
2024/01/29 05:52:22;;;;;;;5.70;3.88;;;-0.30;99.90;;;;;;5036773;28;20619;-73
2024/01/29 05:54:49;;;;;;;7.63;4.38;;;-0.40;99.90;;;;;;5039167;28;20567;-73
2024/01/29 05:57:17;;;;;;;2.92;2.65;;;-0.40;99.90;;;;;;5036714;28;20211;-73
2024/01/29 05:59:44;;;;;;;4.53;3.95;;;-0.50;99.90;;;;;;5038800;28;20213;-74
2024/01/29 06:02:10;;;;;;;3.35;2.70;;;-0.50;99.90;;;;;;5036803;28;20255;-74
2024/01/29 06:04:37;;;;;;;4.32;3.80;;;-0.50;99.90;;;;;;5037749;28;20221;-73
2024/01/29 06:07:05;;;;;;;4.63;2.90;;;-0.60;99.90;;;;;;5038066;28;20205;-73
2024/01/29 06:09:32;;;;;;;5.63;3.20;;;-0.50;99.90;;;;;;5037424;28;20210;-73
2024/01/29 06:11:59;;;;;;;3.70;3.38;;;-0.50;99.90;;;;;;5038859;28;20205;-73
2024/01/29 06:14:26;;;;;;;6.00;3.10;;;-0.50;99.90;;;;;;5037947;28;20686;-73
2024/01/29 06:16:55;;;;;;;3.53;3.22;;;-0.60;99.90;;;;;;5039112;28;20205;-73
2024/01/29 06:19:22;;;;;;;3.72;3.42;;;-0.60;99.90;;;;;;5040810;28;20202;-73
2024/01/29 06:21:49;;;;;;;7.10;3.95;;;-0.60;99.90;;;;;;5043778;28;20211;-73
2024/01/29 06:24:17;;;;;;;3.05;2.40;;;-0.60;99.90;;;;;;5040205;28;20229;-73
2024/01/29 06:26:44;;;;;;;3.33;3.00;;;-0.60;99.90;;;;;;5042700;28;20202;-74
2024/01/29 06:29:11;;;;;;;4.97;3.35;;;-0.60;99.90;;;;;;5040883;28;20203;-74
2024/01/29 06:31:39;;;;;;;2.80;2.60;;;-0.70;99.90;;;;;;5042183;28;20201;-73
2024/01/29 06:34:06;;;;;;;5.47;3.40;;;-0.70;99.90;;;;;;5042210;28;20272;-74
2024/01/29 06:36:33;;;;;;;3.85;2.70;;;-0.70;99.90;;;;;;5041498;28;20210;-73
2024/01/29 06:39:00;;;;;;;5.72;3.17;;;-0.80;99.90;;;;;;5043241;28;20212;-74
2024/01/29 06:41:29;;;;;;;4.18;3.38;;;-0.80;99.90;;;;;;5041129;28;20213;-74
2024/01/29 06:43:56;;;;;;;2.72;2.42;;;-0.80;99.90;;;;;;5040952;28;20229;-73
2024/01/29 06:46:23;;;;;;;4.20;2.80;;;-0.80;99.90;;;;;;5040992;28;20206;-74
2024/01/29 06:48:50;;;;;;;3.15;2.85;;;-0.80;99.90;;;;;;5044075;28;20216;-74
2024/01/29 06:51:16;;;;;;;3.70;2.50;;;-0.90;99.90;;;;;;5041278;28;20224;-74
2024/01/29 06:53:44;;;;;;;5.25;3.45;;;-0.80;99.90;;;;;;5043317;28;20608;-74
2024/01/29 06:56:10;;;;;;;2.60;2.33;;;-0.80;99.90;;;;;;5041748;28;20205;-73
2024/01/29 06:58:38;;;;;;;3.47;3.17;;;-0.90;99.90;;;;;;5042456;28;20209;-74
2024/01/29 07:01:05;;;;;;;3.85;2.95;;;-0.90;99.90;;;;;;5042857;28;20212;-74
2024/01/29 07:03:32;;;;;;;5.13;3.67;;;-0.90;99.90;;;;;;5041638;28;20802;-74
2024/01/29 07:05:59;;;;;;;3.45;2.50;;;-0.90;99.90;;;;;;5043617;28;20221;-74
2024/01/29 07:08:26;;;;;;;3.47;2.63;;;-0.90;99.90;;;;;;5041304;28;20201;-74
2024/01/29 07:10:53;;;;;;;3.53;3.22;;;-0.90;99.90;;;;;;5040531;28;20508;-74
2024/01/29 07:13:19;;;;;;;3.10;2.40;;;-0.80;99.90;;;;;;5041124;28;20218;-74
2024/01/29 07:15:47;;;;;;;3.05;2.38;;;-0.80;99.90;;;;;;5043556;28;20698;-74
2024/01/29 07:18:14;;;;;;;6.15;3.03;;;-0.70;99.90;;;;;;5042083;28;20429;-74
2024/01/29 07:20:44;;;;;;;3.50;2.47;;;-0.70;99.90;;;;;;5043205;28;20617;-74
2024/01/29 07:23:11;;;;;;;6.10;2.70;;;-0.70;99.90;;;;;;5042564;28;20253;-74
2024/01/29 07:25:38;;;;;;;3.45;2.78;;;-0.70;99.90;;;;;;5042592;28;20230;-73
2024/01/29 07:28:06;;;;;;;4.63;2.88;;;-0.60;99.90;;;;;;5042193;28;20255;-74
2024/01/29 07:30:33;;;;;;;6.68;3.17;;;-0.60;99.90;;;;;;5042270;28;20209;-74
2024/01/29 07:33:02;;;;;;;4.32;2.65;;;-0.50;99.90;;;;;;5044542;28;20221;-74
2024/01/29 07:35:29;;;;;;;3.22;2.90;;;-0.40;99.90;;;;;;5041339;28;20293;-73
2024/01/29 07:37:56;;;;;;;3.53;2.55;;;-0.40;99.90;;;;;;5044929;28;20213;-75
2024/01/29 07:40:22;;;;;;;4.03;2.85;;;-0.30;99.90;;;;;;5041311;28;20668;-74
2024/01/29 07:42:49;;;;;;;4.43;3.15;;;-0.30;99.90;;;;;;5044406;28;20740;-74
2024/01/29 07:45:16;;;;;;;3.60;2.85;;;-0.20;99.90;;;;;;5042010;28;20222;-74
2024/01/29 07:47:44;;;;;;;5.75;3.80;;;-0.20;99.90;;;;;;5043692;28;20223;-74
2024/01/29 07:50:13;;;;;;;4.00;3.60;;;-0.10;99.90;;;;;;5043067;28;20208;-74
2024/01/29 07:52:40;;;;;;;3.30;2.55;;;0.00;99.90;;;;;;5043357;28;20226;-75
2024/01/29 07:55:07;;;;;;;3.97;3.10;;;0.00;99.90;;;;;;5043534;28;20288;-75
2024/01/29 07:57:34;;;;;;;4.70;2.78;;;0.10;99.90;;;;;;5042654;28;20211;-74
2024/01/29 08:00:01;;;;;;;3.28;2.70;;;0.20;99.90;;;;;;5045205;28;20203;-74
2024/01/29 08:02:27;;;;;;;3.95;3.22;;;0.40;99.90;;;;;;5054091;28;20786;-74
2024/01/29 08:04:54;;;;;;;4.32;3.05;;;0.90;99.90;;;;;;5040406;28;20228;-74
2024/01/29 08:07:22;;;;;;;5.63;3.35;;;1.60;99.90;;;;;;5042762;28;20558;-75
2024/01/29 08:09:49;;;;;;;3.90;3.45;;;2.40;99.90;;;;;;5044768;28;20208;-74
2024/01/29 08:12:16;;;;;;;3.15;2.85;;;3.10;99.90;;;;;;5043071;28;20232;-74
2024/01/29 08:14:43;;;;;;;4.38;3.30;;;3.70;99.90;;;;;;5043681;28;20233;-74
2024/01/29 08:17:10;;;;;;;4.90;3.65;;;4.20;99.90;;;;;;5044084;28;20252;-75
2024/01/29 08:19:37;;;;;;;5.43;3.55;;;4.60;99.90;;;;;;5043122;28;20257;-75
2024/01/29 08:22:03;;;;;;;3.72;3.40;;;4.90;99.90;;;;;;5045344;28;20220;-75
2024/01/29 08:24:32;;;;;;;4.50;3.92;;;5.20;99.90;;;;;;5041872;28;20218;-73
2024/01/29 08:26:58;;;;;;;3.53;3.20;;;5.50;99.90;;;;;;5045433;28;20682;-75
2024/01/29 08:29:25;;;;;;;5.45;4.28;;;6.00;99.90;;;;;;5042231;28;20293;-74
2024/01/29 08:31:52;;;;;;;4.13;3.72;;;6.60;99.90;;;;;;5045229;28;20212;-74
2024/01/29 08:34:19;;;;;;;5.75;4.10;;;7.50;99.90;;;;;;5043086;28;20210;-75
2024/01/29 08:36:46;;;;;;;4.80;4.38;;;8.40;99.90;;;;;;5044077;28;20584;-74
2024/01/29 08:39:13;;;;;;;5.13;4.38;;;9.10;99.90;;;;;;5043630;28;20215;-75
2024/01/29 08:41:41;;;;;;;5.53;5.00;;;9.70;99.90;;;;;;5043576;28;20600;-75
2024/01/29 08:44:09;;;;;;;5.38;4.82;;;10.30;99.90;;;;;;5044752;28;20236;-74
2024/01/29 08:46:36;;;;;;;8.63;5.75;;;10.90;99.90;;;;;;5043049;28;20209;-75
2024/01/29 08:49:03;;;;;;;5.95;5.30;;;11.30;99.90;;;;;;5045423;28;20205;-75
2024/01/29 08:51:30;;;;;;;6.18;4.65;;;11.60;99.90;;;;;;5041781;28;20213;-75
2024/01/29 08:53:57;;;;;;;5.38;4.50;;;12.00;99.90;;;;;;5045419;28;20226;-74
2024/01/29 08:56:23;;;;;;;6.65;4.30;;;12.30;99.50;;;;;;5042417;28;20210;-75
2024/01/29 08:58:51;;;;;;;5.22;4.72;;;12.60;99.00;;;;;;5045003;28;20209;-75
2024/01/29 09:01:18;;;;;;;7.38;3.85;;;12.90;98.70;;;;;;5043424;28;20209;-75
2024/01/29 09:03:45;;;;;;;5.55;4.55;;;13.60;98.10;;;;;;5044114;28;20233;-75
2024/01/29 09:06:11;;;;;;;4.77;3.80;;;14.80;96.80;;;;;;5044156;28;20721;-75
2024/01/29 09:08:38;;;;;;;4.93;4.43;;;16.10;95.30;;;;;;5043426;28;20469;-75
2024/01/29 09:11:05;;;;;;;6.10;5.13;;;17.60;93.30;;;;;;5045532;28;20466;-75
2024/01/29 09:13:32;;;;;;;5.73;4.80;;;18.90;91.30;;;;;;5042667;28;20487;-75
2024/01/29 09:16:00;;;;;;;4.90;4.40;;;19.50;88.40;;;;;;5045416;28;20468;-76
2024/01/29 09:18:27;;;;;;;5.87;4.90;;;20.20;88.00;;;;;;5042635;28;20471;-75
2024/01/29 09:20:54;;;;;;;6.47;4.77;;;20.90;85.90;;;;;;5040212;28;20482;-76
2024/01/29 09:23:20;;;;;;;4.90;4.40;;;21.40;83.30;;;;;;5044010;28;20973;-75
2024/01/29 09:25:47;;;;;;;6.60;5.03;;;22.10;81.60;;;;;;5044553;28;20483;-75
2024/01/29 09:28:14;;;;;;;6.80;4.70;;;22.50;80.30;;;;;;5044689;28;20824;-75
2024/01/29 09:30:40;;;;;;;5.17;4.67;;;23.00;79.40;;;;;;5044076;28;20964;-75
2024/01/29 09:33:09;;;;;;;6.10;5.50;;;22.90;77.80;;;;;;5045745;28;20502;-75
2024/01/29 09:35:35;;;;;;;6.10;5.40;;;22.50;79.60;;;;;;5053515;28;20969;-75
2024/01/29 09:38:02;;;;;;;8.80;5.10;;;23.00;78.40;;;;;;5045884;28;20463;-75
2024/01/29 09:40:29;;;;;;;4.63;4.13;;;23.40;77.60;;;;;;5042871;28;20459;-75
2024/01/29 09:42:57;;;;;;;5.63;5.07;;;23.70;77.90;;;;;;5046458;28;20506;-75
2024/01/29 09:45:24;;;;;;;5.43;4.83;;;23.90;77.30;;;;;;5043520;28;20940;-76
2024/01/29 09:47:53;;;;;;;5.63;4.80;;;23.70;77.50;;;;;;5046069;28;20464;-76
2024/01/29 09:50:23;;;;;;;5.63;5.13;;;23.60;77.80;;;;;;5043683;28;20522;-75
2024/01/29 09:52:54;;;;;;;8.30;4.90;;;23.70;75.60;;;;;;5045979;28;20476;-75
2024/01/29 09:55:21;;;;;;;4.97;4.50;;;24.10;75.20;;;;;;5044319;28;20458;-76
2024/01/29 09:57:47;;;;;;;5.60;5.00;;;24.20;75.70;;;;;;5045851;28;20467;-76
2024/01/29 10:00:15;;;;;;;5.60;4.80;;;24.20;75.90;;;;;;5045632;28;20466;-76
2024/01/29 10:02:45;;;;;;;6.10;5.50;;;24.10;75.40;;;;;;5044833;28;20826;-75
2024/01/29 10:05:12;;;;;;;6.17;4.90;;;24.00;76.20;;;;;;5046121;28;20484;-76
2024/01/29 10:07:42;;;;;;;7.73;5.27;;;24.30;75.50;;;;;;5044384;28;20461;-75
2024/01/29 10:10:09;;;;;;;5.33;4.50;;;24.80;74.50;;;;;;5046079;28;20467;-76
2024/01/29 10:12:36;;;;;;;5.67;5.03;;;25.20;73.30;;;;;;5044052;28;20507;-76
2024/01/29 10:15:04;;;;;;;5.60;5.20;;;25.50;72.40;;;;;;5046197;28;20459;-76
2024/01/29 10:17:30;;;;;;;8.43;4.87;;;25.40;72.90;;;;;;5044359;28;20556;-76
2024/01/29 10:19:57;;;;;;;6.60;5.20;;;25.30;73.10;;;;;;5046512;28;20980;-75
2024/01/29 10:22:26;;;;;;;6.17;4.73;;;25.60;72.40;;;;;;5044732;28;20494;-75
2024/01/29 10:25:02;;;;;;;4.50;4.10;;;26.00;72.50;;;;;;5045889;28;20527;-73
2024/01/29 10:27:29;;;;;;;5.93;5.37;;;26.40;71.80;;;;;;5044415;28;20463;-74
2024/01/29 10:29:56;;;;;;;5.50;4.97;;;26.50;72.70;;;;;;5046684;28;20494;-74
2024/01/29 10:32:23;;;;;;;6.07;5.43;;;26.60;71.30;;;;;;5045423;28;20510;-74
2024/01/29 10:34:50;;;;;;;5.53;4.40;;;26.70;72.10;;;;;;5047758;28;21000;-74
2024/01/29 10:37:17;;;;;;;6.60;5.13;;;26.80;70.30;;;;;;5046636;28;20485;-74
2024/01/29 10:39:44;;;;;;;4.83;4.33;;;26.80;71.20;;;;;;5045966;28;20468;-74
2024/01/29 10:42:14;;;;;;;4.50;4.10;;;26.90;70.70;;;;;;5046594;28;20472;-74
2024/01/29 10:44:42;;;;;;;4.13;3.73;;;27.10;70.00;;;;;;5053977;28;20464;-74
2024/01/29 10:47:14;;;;;;;7.23;4.23;;;27.40;69.00;;;;;;5046914;28;20491;-74
2024/01/29 10:49:43;;;;;;;6.57;5.10;;;27.90;68.40;;;;;;5044307;28;20999;-74
2024/01/29 10:52:12;;;;;;;5.97;5.57;;;28.10;69.30;;;;;;5046934;28;20605;-75
2024/01/29 10:54:40;;;;;;;8.50;5.47;;;28.10;69.50;;;;;;5044276;28;20468;-75
2024/01/29 10:57:09;;;;;;;8.30;4.80;;;28.50;68.70;;;;;;5047258;28;20841;-75
2024/01/29 10:59:41;;;;;;;6.93;5.33;;;28.20;68.90;;;;;;5044934;28;20509;-75
2024/01/29 11:02:11;;;;;;;6.00;4.67;;;28.40;68.10;;;;;;5047689;28;20491;-75
2024/01/29 11:04:37;;;;;;;7.73;5.60;;;27.90;68.50;;;;;;5047892;28;20470;-75
2024/01/29 11:07:11;;;;;;;6.23;5.27;;;27.60;68.60;;;;;;5052092;28;21012;-75
2024/01/29 11:09:39;;;;;;;6.70;6.00;;;27.90;69.30;;;;;;5048352;28;20459;-75
2024/01/29 11:12:07;;;;;;;7.63;5.80;;;27.80;69.10;;;;;;5050523;28;20953;-75
2024/01/29 11:14:34;;;;;;;6.50;5.90;;;27.60;69.20;;;;;;5047856;28;20456;-75
2024/01/29 11:17:02;;;;;;;5.87;5.33;;;27.50;68.90;;;;;;5051128;28;20459;-75
2024/01/29 11:19:33;;;;;;;7.13;5.90;;;27.70;67.80;;;;;;5045323;28;20464;-74
2024/01/29 11:22:00;;;;;;;9.07;5.70;;;27.10;69.40;;;;;;5043070;28;20467;-74
2024/01/29 11:24:27;;;;;;;6.40;5.53;;;27.30;69.70;;;;;;5046937;28;20463;-75
2024/01/29 11:27:04;;;;;;;6.30;5.70;;;27.80;69.20;;;;;;5042965;28;20555;-75
2024/01/29 11:29:37;;;;;;;5.80;5.20;;;27.90;68.90;;;;;;5056466;28;20481;-74
2024/01/29 11:32:05;;;;;;;5.83;5.23;;;27.80;68.20;;;;;;5057282;28;20846;-75
2024/01/29 11:34:32;;;;;;;7.07;5.13;;;27.90;67.80;;;;;;5048718;28;20456;-74
2024/01/29 11:37:00;;;;;;;5.80;5.20;;;28.00;67.30;;;;;;5050518;28;20456;-75
2024/01/29 11:39:27;;;;;;;7.03;5.77;;;27.90;67.20;;;;;;5049489;28;20459;-75
2024/01/29 11:41:54;;;;;;;6.30;5.70;;;27.30;68.00;;;;;;5043469;28;20546;-75
2024/01/29 11:44:22;;;;;;;7.17;5.73;;;26.90;68.90;;;;;;5051929;28;20475;-75
2024/01/29 11:46:49;;;;;;;6.03;5.50;;;26.60;68.30;;;;;;5062115;28;20540;-75
2024/01/29 11:49:25;;;;;;;6.47;5.70;;;26.80;68.50;;;;;;5069241;28;20459;-75
2024/01/29 11:51:53;;;;;;;6.67;6.07;;;26.20;69.80;;;;;;5050775;28;20937;-75
2024/01/29 11:54:21;;;;;;;6.13;5.60;;;25.80;70.10;;;;;;5052070;28;20949;-75
2024/01/29 11:56:48;;;;;;;7.30;6.60;;;25.10;70.40;;;;;;5067029;28;20470;-75
2024/01/29 11:59:15;;;;;;;6.10;5.50;;;24.60;71.40;;;;;;5051024;28;20554;-74
2024/01/29 12:01:43;;;;;;;6.80;5.93;;;24.30;71.90;;;;;;5051106;28;20459;-75
2024/01/29 12:04:10;;;;;;;6.63;5.93;;;24.00;71.80;;;;;;5051132;28;20463;-75
2024/01/29 12:06:38;;;;;;;5.70;5.20;;;23.60;72.40;;;;;;5049753;28;20870;-75
2024/01/29 12:09:07;;;;;;;9.00;4.90;;;23.40;72.80;;;;;;5051289;28;20466;-75
2024/01/29 12:11:34;;;;;;;6.13;5.33;;;23.30;72.90;;;;;;5050245;28;20463;-74
2024/01/29 12:14:00;;;;;;;5.90;5.40;;;22.90;74.00;;;;;;5050617;28;20495;-75
2024/01/29 12:16:28;;;;;;;6.90;6.00;;;22.60;75.10;;;;;;5050432;28;20826;-74
2024/01/29 12:18:58;;;;;;;5.97;5.37;;;22.30;74.90;;;;;;5043752;28;20953;-74
2024/01/29 12:21:26;;;;;;;6.60;5.33;;;22.10;74.90;;;;;;5050904;28;20474;-74
2024/01/29 12:23:54;;;;;;;6.40;5.60;;;21.90;75.30;;;;;;5051129;28;20479;-74
2024/01/29 12:26:27;;;;;;;7.00;5.43;;;21.70;75.60;;;;;;5050972;28;20472;-75
2024/01/29 12:28:54;;;;;;;6.30;5.70;;;21.40;76.40;;;;;;5043420;28;20460;-75
2024/01/29 12:31:21;;;;;;;5.53;5.03;;;21.50;76.50;;;;;;5051006;28;20918;-75
2024/01/29 12:33:48;;;;;;;5.40;4.90;;;20.90;77.10;;;;;;5050656;28;20480;-74
2024/01/29 12:36:17;;;;;;;5.30;4.80;;;20.70;77.50;;;;;;5051389;28;20456;-74
2024/01/29 12:38:51;;;;;;;5.70;5.00;;;20.30;77.50;;;;;;5050862;28;20474;-74
2024/01/29 12:41:19;;;;;;;5.10;4.70;;;20.00;77.10;;;;;;5051418;28;20463;-74
2024/01/29 12:43:46;;;;;;;4.80;4.30;;;19.70;76.80;;;;;;5050941;28;20483;-74
2024/01/29 12:46:14;;;;;;;4.70;3.70;;;19.20;75.90;;;;;;5051170;28;20861;-74
2024/01/29 12:48:40;;;;;;;5.20;4.13;;;18.70;76.80;;;;;;5050919;28;20459;-74